Aviation Digital Data Service (ADDS)

Output produced by METARs form (1825 UTC 16 August 2018)
found at http://www.aviationweather.gov/adds/metars/
 
TAF SGAS 161620Z 1618/1718 VRB03KT 8000 NSC TX26/1619Z TN16/1709Z 
     BECMG 1619/1621 15006KT 9999 SCT033 
     BECMG 1700/1704 CAVOK 
     PROB30 1708/1710 VRB04KT 7000 NSC
       
TAF SGES 161620Z 1618/1718 04003KT CAVOK TX26/1619Z TN14/1709Z 
     BECMG 1619/1621 14005KT 9999 SCT030 
     BECMG 1701/1705 VRB04KT CAVOK 
     BECMG 1708/1711 5000 BR NSC
       
TAF SGCO 161620Z 1618/1718 28004KT CAVOK TX26/1619Z TN16/1709Z 
     BECMG 
     TEMPO 1620/1623 9999 SCT027 
     BECMG 1701/1705 05005KT CAVOK 
     BECMG 1709/1711 VRB04KT CAVOK